CW7997 Weather Reports


time (UTC)temp
C
wind
direction
speed
KPH
gust
KPH
rain 1hr
cm
rain 24hr
cm
rain mn
cm
humidity
%
barometer
mb
20190821180716 18 328 0.0 0.0 0.00 0.03 0.03 69 26.1
20190821175216 18 328 0.0 1.6 0.00 0.03 0.03 66 26.1
20190821173716 19 328 1.6 4.8 0.00 0.03 0.03 64 26.1
20190821172215 20 328 0.0 1.6 0.00 0.03 0.03 63 26.2
20190821165215 19 338 1.6 4.8 0.00 0.03 0.03 64 26.4
20190821162215 20 343 1.6 6.4 0.00 0.03 0.03 63 26.3
20190821160716 20 351 1.6 3.2 0.00 0.03 0.03 62 26.4
20190821155215 20 5 3.2 4.8 0.00 0.03 0.03 62 26.3
20190821153715 20 328 1.6 3.2 0.00 0.03 0.03 62 26.3
20190821152215 20 5 1.6 9.7 0.00 0.03 0.03 61 26.3
20190821150713 21 317 3.2 6.4 0.00 0.03 0.03 58 26.3
20190821143713 21 304 3.2 8.0 0.00 0.03 0.03 58 26.1
20190821142213 20 269 4.8 11.3 0.00 0.03 0.03 61 26.3
20190821140712 20 302 3.2 8.0 0.00 0.03 0.03 59 26.2
20190821132212 21 302 6.4 16.1 0.00 0.03 0.03 55 26.3
20190821123712 20 304 4.8 11.3 0.00 0.03 0.03 59 26.3
20190821113715 20 355 4.8 9.7 0.00 0.03 0.03 63 26.4
20190821110715 18 157 3.2 8.0 0.00 0.03 0.03 70 26.3
20190821103715 19 327 3.2 11.3 0.00 0.03 0.03 67 26.4
20190821100715 18 295 4.8 9.7 0.00 0.03 0.03 72 26.3
20190821093714 18 329 1.6 9.7 0.03 0.03 0.03 76 26.4
20190821090713 18 5 3.2 9.7 0.03 0.03 0.03 74 26.4
20190821083713 17 340 6.4 9.7 0.00 0.00 0.00 76 26.2
20190821082213 17 272 3.2 9.7 0.00 0.00 0.00 81 26.1
20190821075212 16 313 4.8 11.3 0.00 0.00 0.00 83 26.1
20190821065213 13 327 1.6 4.8 0.00 0.00 0.00 96 25.8
20190821063711 13 225 0.0 3.2 0.00 0.00 0.00 97 25.7
20190821055216 12 360 0.0 1.6 0.00 0.00 0.00 97 25.3
20190821052215 11 73 0.0 0.0 0.00 0.00 0.00 97 25.0
20190821045215 11 73 0.0 0.0 0.00 0.00 0.00 96 24.8
20190821043715 11 73 0.0 0.0 0.00 0.00 0.00 96 24.8
20190821042215 11 73 0.0 0.0 0.00 0.00 0.00 96 24.6
20190821040714 11 73 0.0 0.0 0.00 0.00 0.00 96 24.4
20190821033714 11 73 0.0 0.0 0.00 0.00 0.00 96 24.3
20190821030714 11 73 0.0 0.0 0.00 0.00 0.00 96 24.1
20190821022213 11 73 0.0 0.0 0.00 0.00 0.00 95 23.9
20190821015214 12 73 0.0 0.0 0.00 0.00 0.00 95 23.7
20190821013712 12 73 0.0 0.0 0.00 0.00 0.00 95 23.6
20190821010712 12 73 0.0 0.0 0.00 0.00 0.00 95 23.5
20190821005212 12 73 0.0 0.0 0.00 0.00 0.00 94 23.4
20190821002211 13 73 0.0 0.0 0.00 0.00 0.00 94 23.3
20190820235211 13 73 0.0 0.0 0.00 0.00 0.00 94 23.2
20190820233716 13 73 0.0 0.0 0.00 0.00 0.00 95 23.1
20190820232229 14 73 0.0 0.0 0.00 0.00 0.00 95 23.1
20190820230715 14 73 0.0 0.0 0.00 0.00 0.00 95 23.1
20190820223715 14 73 0.0 1.6 0.00 0.00 0.00 95 23.1
20190820220714 14 90 0.0 1.6 0.00 0.00 0.00 95 22.7
20190820215214 13 90 0.0 0.0 0.00 0.05 0.05 94 22.7
20190820213714 14 90 0.0 0.0 0.00 0.05 0.05 93 22.6
20190820212214 14 90 0.0 0.0 0.00 0.05 0.05 93 22.5
20190820205213 15 90 0.0 0.0 0.00 0.05 0.05 94 22.3
20190820202213 15 90 0.0 0.0 0.00 0.05 0.05 93 22.2
20190820200713 15 90 0.0 0.0 0.00 0.05 0.05 92 22.2
20190820193712 15 82 0.0 1.6 0.00 0.05 0.05 92 22.2
20190820192212 15 82 0.0 0.0 0.00 0.05 0.05 91 21.8
20190820190712 15 82 0.0 1.6 0.00 0.05 0.05 91 21.8
20190820185212 15 84 0.0 0.0 0.03 0.05 0.05 90 21.7
20190820183711 16 84 0.0 1.6 0.03 0.05 0.05 89 21.5